createdAt,value
2022-09-04T00:00:28.424Z,86.12
2022-09-04T00:01:28.421Z,86.02
2022-09-04T00:02:28.419Z,86.02
2022-09-04T00:03:28.392Z,86.02
2022-09-04T00:04:28.530Z,86.02
2022-09-04T00:05:28.364Z,86.02
2022-09-04T00:06:28.360Z,86.02
2022-09-04T00:07:28.349Z,86.26
2022-09-04T00:08:28.339Z,86.46
2022-09-04T00:09:28.305Z,86.46
2022-09-04T00:10:28.295Z,86.57
2022-09-04T00:11:28.283Z,86.46
2022-09-04T00:12:28.285Z,86.36
2022-09-04T00:13:28.284Z,86.22
2022-09-04T00:14:28.258Z,86.32
2022-09-04T00:15:28.225Z,86.22
2022-09-04T00:16:28.293Z,86.22
2022-09-04T00:17:28.207Z,86.12
2022-09-04T00:18:28.205Z,86.12
2022-09-04T00:19:28.172Z,86.26
2022-09-04T00:20:28.163Z,86.26
2022-09-04T00:21:28.169Z,86.36
2022-09-04T00:22:28.150Z,86.36
2022-09-04T00:23:28.133Z,86.36
2022-09-04T00:24:28.127Z,86.36
2022-09-04T00:25:28.105Z,86.36
2022-09-04T00:26:28.086Z,86.36
2022-09-04T00:27:28.087Z,86.46
2022-09-04T00:28:28.086Z,86.36
2022-09-04T00:29:28.067Z,86.36
2022-09-04T00:30:28.103Z,86.36
2022-09-04T00:31:28.023Z,86.26
2022-09-04T00:32:28.019Z,86.26
2022-09-04T00:33:28.019Z,86.26
2022-09-04T00:34:27.998Z,86.26
2022-09-04T00:35:27.983Z,86.26
2022-09-04T00:36:27.952Z,86.26
2022-09-04T00:37:27.947Z,86.36
2022-09-04T00:38:27.965Z,86.36
2022-09-04T00:39:27.958Z,86.36
2022-09-04T00:40:31.244Z,86.36
2022-09-04T00:41:27.883Z,86.46
2022-09-04T00:42:27.897Z,86.57
2022-09-04T00:43:27.871Z,86.66
2022-09-04T00:44:27.865Z,86.77
2022-09-04T00:45:27.926Z,86.77
2022-09-04T00:46:30.250Z,86.87
2022-09-04T00:47:27.810Z,86.87
2022-09-04T00:48:27.816Z,86.97
2022-09-04T00:49:27.793Z,87.07
2022-09-04T00:50:27.772Z,87.17
2022-09-04T00:51:27.753Z,87.31
2022-09-04T00:52:31.373Z,87.41
2022-09-04T00:53:28.757Z,87.37
2022-09-04T00:54:27.722Z,87.31
2022-09-04T00:55:27.701Z,87.41
2022-09-04T00:56:27.693Z,87.31
2022-09-04T00:57:27.686Z,87.41
2022-09-04T00:58:27.698Z,87.31
2022-09-04T00:59:27.667Z,87.31
2022-09-04T01:00:27.656Z,87.41
2022-09-04T01:01:27.745Z,87.41
2022-09-04T01:02:27.692Z,87.41
2022-09-04T01:03:27.628Z,87.41
2022-09-04T01:04:27.596Z,87.41
2022-09-04T01:05:27.572Z,87.41
2022-09-04T01:06:27.575Z,87.41
2022-09-04T01:07:27.564Z,87.41
2022-09-04T01:08:27.594Z,87.51
2022-09-04T01:09:27.519Z,87.51
2022-09-04T01:10:27.527Z,87.41
2022-09-04T01:11:27.507Z,87.51
2022-09-04T01:12:27.490Z,87.51
2022-09-04T01:13:27.544Z,87.62
2022-09-04T01:14:27.468Z,87.62
2022-09-04T01:15:27.431Z,87.71
2022-09-04T01:16:27.476Z,87.62
2022-09-04T01:17:27.409Z,87.62
2022-09-04T01:18:27.424Z,87.71
2022-09-04T01:19:27.392Z,87.82
2022-09-04T01:20:27.373Z,87.82
2022-09-04T01:21:27.374Z,87.82
2022-09-04T01:22:27.354Z,87.92
2022-09-04T01:23:27.366Z,88.02
2022-09-04T01:24:27.335Z,88.02
2022-09-04T01:25:27.309Z,87.92
2022-09-04T01:26:27.304Z,88.02
2022-09-04T01:27:27.300Z,88.12
2022-09-04T01:28:27.280Z,88.02
2022-09-04T01:29:27.260Z,88.12
2022-09-04T01:30:27.255Z,88.12
2022-09-04T01:31:27.281Z,88.12
2022-09-04T01:32:27.212Z,88.12
2022-09-04T01:33:27.216Z,88.22
2022-09-04T01:34:27.204Z,88.32
2022-09-04T01:35:27.188Z,88.32
2022-09-04T01:36:27.160Z,88.32
2022-09-04T01:37:27.166Z,88.32
2022-09-04T01:38:27.163Z,88.42
2022-09-04T01:39:27.173Z,88.32
2022-09-04T01:40:35.994Z,88.32
2022-09-04T01:41:28.099Z,88.32
2022-09-04T01:42:27.095Z,88.32
2022-09-04T01:43:27.103Z,88.22
2022-09-04T01:44:27.061Z,88.22
2022-09-04T01:45:27.100Z,88.22
2022-09-04T01:46:27.030Z,88.36
2022-09-04T01:47:27.033Z,88.36
2022-09-04T01:48:27.011Z,88.36
2022-09-04T01:49:27.012Z,88.56
2022-09-04T01:50:26.992Z,88.66
2022-09-04T01:51:26.983Z,88.66
2022-09-04T01:52:26.963Z,88.66
2022-09-04T01:53:26.966Z,88.66
2022-09-04T01:54:27.941Z,88.76
2022-09-04T01:55:26.920Z,88.66
2022-09-04T01:56:26.897Z,88.66
2022-09-04T01:57:26.892Z,88.66
2022-09-04T01:58:26.894Z,88.66
2022-09-04T01:59:26.860Z,88.66
2022-09-04T02:00:26.853Z,88.66
2022-09-04T02:01:26.881Z,88.76
2022-09-04T02:02:26.891Z,88.76
2022-09-04T02:03:26.832Z,88.76
2022-09-04T02:04:26.803Z,88.76
2022-09-04T02:05:26.793Z,88.76
2022-09-04T02:06:26.783Z,88.76
2022-09-04T02:07:26.751Z,88.76
2022-09-04T02:08:26.808Z,88.86
2022-09-04T02:09:26.728Z,88.96
2022-09-04T02:10:26.710Z,89.06
2022-09-04T02:11:28.065Z,89.17
2022-09-04T02:12:26.689Z,89.26
2022-09-04T02:13:26.701Z,89.26
2022-09-04T02:14:26.660Z,89.26
2022-09-04T02:15:26.666Z,89.37
2022-09-04T02:16:26.841Z,89.26
2022-09-04T02:17:26.619Z,89.26
2022-09-04T02:18:26.635Z,89.41
2022-09-04T02:19:26.605Z,89.51
2022-09-04T02:20:26.580Z,89.47
2022-09-04T02:21:26.570Z,89.37
2022-09-04T02:22:26.548Z,89.37
2022-09-04T02:23:26.581Z,89.47
2022-09-04T02:24:26.529Z,89.47
2022-09-04T02:25:26.533Z,89.47
2022-09-04T02:26:26.512Z,89.37
2022-09-04T02:27:26.501Z,89.37
2022-09-04T02:28:26.548Z,89.26
2022-09-04T02:29:26.468Z,89.37
2022-09-04T02:30:26.457Z,89.51
2022-09-04T02:31:26.499Z,89.57
2022-09-04T02:32:26.433Z,89.57
2022-09-04T02:33:26.418Z,89.57
2022-09-04T02:34:26.397Z,89.57
2022-09-04T02:35:26.386Z,89.47
2022-09-04T02:36:26.368Z,89.47
2022-09-04T02:37:26.378Z,89.57
2022-09-04T02:38:26.421Z,89.57
2022-09-04T02:39:26.368Z,89.47
2022-09-04T02:40:27.534Z,89.47
2022-09-04T02:41:26.331Z,89.47
2022-09-04T02:42:26.305Z,89.47
2022-09-04T02:43:26.298Z,89.47
2022-09-04T02:44:26.267Z,89.51
2022-09-04T02:45:26.262Z,89.51
2022-09-04T02:46:26.276Z,89.67
2022-09-04T02:47:26.242Z,89.67
2022-09-04T02:48:26.241Z,89.67
2022-09-04T02:49:26.211Z,89.67
2022-09-04T02:50:26.188Z,89.61
2022-09-04T02:51:26.176Z,89.67
2022-09-04T02:52:26.170Z,89.71
2022-09-04T02:53:26.180Z,89.71
2022-09-04T02:54:26.141Z,89.67
2022-09-04T02:55:26.126Z,89.77
2022-09-04T02:56:26.108Z,89.77
2022-09-04T02:57:26.099Z,89.91
2022-09-04T02:58:26.249Z,90.01
2022-09-04T02:59:26.090Z,90.11
2022-09-04T03:00:26.071Z,90.11
2022-09-04T03:01:26.070Z,90.01
2022-09-04T03:02:26.063Z,90.01
2022-09-04T03:03:26.043Z,90.11
2022-09-04T03:04:26.020Z,90.11
2022-09-04T03:05:26.010Z,90.22
2022-09-04T03:06:25.979Z,90.22
2022-09-04T03:07:25.976Z,90.22
2022-09-04T03:08:26.096Z,90.22
2022-09-04T03:09:25.937Z,90.22
2022-09-04T03:10:25.929Z,90.22
2022-09-04T03:11:25.938Z,90.22
2022-09-04T03:12:25.916Z,90.32
2022-09-04T03:13:25.907Z,90.32
2022-09-04T03:14:25.890Z,90.32
2022-09-04T03:15:25.878Z,90.32
2022-09-04T03:16:25.897Z,90.32
2022-09-04T03:17:25.852Z,90.52
2022-09-04T03:18:25.837Z,90.52
2022-09-04T03:19:25.832Z,90.42
2022-09-04T03:20:25.805Z,90.32
2022-09-04T03:21:25.799Z,90.11
2022-09-04T03:22:25.777Z,90.11
2022-09-04T03:23:25.791Z,90.01
2022-09-04T03:24:25.736Z,89.91
2022-09-04T03:25:25.750Z,90.01
2022-09-04T03:26:25.728Z,89.91
2022-09-04T03:27:25.738Z,89.91
2022-09-04T03:28:25.849Z,89.95
2022-09-04T03:29:25.676Z,90.06
2022-09-04T03:30:25.666Z,90.16
2022-09-04T03:31:25.678Z,90.16
2022-09-04T03:32:25.656Z,90.06
2022-09-04T03:33:25.635Z,90.06
2022-09-04T03:34:25.622Z,90.06
2022-09-04T03:35:25.611Z,90.06
2022-09-04T03:36:25.597Z,89.95
2022-09-04T03:37:25.589Z,90.06
2022-09-04T03:38:25.756Z,90.06
2022-09-04T03:39:25.587Z,90.06
2022-09-04T03:40:25.526Z,90.06
2022-09-04T03:41:25.515Z,90.06
2022-09-04T03:42:25.505Z,90.06
2022-09-04T03:43:25.519Z,90.06
2022-09-04T03:44:25.485Z,90.16
2022-09-04T03:45:25.466Z,90.16
2022-09-04T03:46:25.501Z,90.16
2022-09-04T03:47:25.465Z,90.16
2022-09-04T03:48:25.541Z,90.26
2022-09-04T03:49:25.428Z,90.16
2022-09-04T03:50:25.417Z,90.16
2022-09-04T03:51:25.397Z,90.16
2022-09-04T03:52:25.371Z,90.06
2022-09-04T03:53:25.389Z,90.06
2022-09-04T03:54:25.358Z,90.06
2022-09-04T03:55:25.347Z,89.95
2022-09-04T03:56:25.337Z,89.95
2022-09-04T03:57:25.330Z,89.95
2022-09-04T03:58:25.488Z,89.95
2022-09-04T03:59:25.293Z,89.86
2022-09-04T04:00:25.266Z,89.75
2022-09-04T04:01:25.391Z,89.65
2022-09-04T04:02:25.287Z,89.75
2022-09-04T04:03:25.267Z,89.65
2022-09-04T04:04:25.220Z,89.65
2022-09-04T04:05:25.203Z,89.75
2022-09-04T04:06:25.207Z,89.75
2022-09-04T04:07:25.196Z,89.65
2022-09-04T04:08:25.290Z,89.75
2022-09-04T04:09:25.153Z,89.65
2022-09-04T04:10:25.154Z,89.79
2022-09-04T04:11:25.142Z,89.79
2022-09-04T04:12:25.111Z,89.90
2022-09-04T04:13:25.114Z,89.90
2022-09-04T04:14:25.108Z,90.00
2022-09-04T04:15:25.086Z,90.10
2022-09-04T04:16:25.572Z,90.20
2022-09-04T04:17:25.063Z,90.30
2022-09-04T04:18:25.132Z,90.30
2022-09-04T04:19:25.023Z,90.30
2022-09-04T04:20:25.026Z,90.30
2022-09-04T04:21:25.012Z,90.30
2022-09-04T04:22:24.991Z,90.41
2022-09-04T04:23:24.986Z,90.41
2022-09-04T04:24:24.985Z,90.30
2022-09-04T04:25:24.957Z,90.20
2022-09-04T04:26:24.945Z,90.10
2022-09-04T04:27:24.927Z,90.00
2022-09-04T04:28:25.006Z,90.00
2022-09-04T04:29:24.906Z,90.00
2022-09-04T04:30:24.873Z,90.00
2022-09-04T04:31:24.916Z,90.00
2022-09-04T04:32:24.861Z,90.10
2022-09-04T04:33:24.852Z,90.10
2022-09-04T04:34:24.835Z,90.10
2022-09-04T04:35:24.824Z,90.10
2022-09-04T04:36:24.813Z,90.20
2022-09-04T04:37:24.791Z,90.20
2022-09-04T04:38:24.927Z,90.30
2022-09-04T04:39:28.189Z,90.30
2022-09-04T04:40:25.761Z,90.30
2022-09-04T04:41:24.753Z,90.30
2022-09-04T04:42:24.730Z,90.20
2022-09-04T04:43:24.744Z,90.20
2022-09-04T04:44:24.705Z,90.30
2022-09-04T04:45:24.694Z,90.30
2022-09-04T04:46:24.701Z,90.30
2022-09-04T04:47:24.658Z,90.20
2022-09-04T04:48:24.829Z,90.30
2022-09-04T04:49:24.654Z,90.30
2022-09-04T04:50:24.618Z,90.30
2022-09-04T04:51:24.622Z,90.20
2022-09-04T04:52:24.589Z,90.30
2022-09-04T04:53:24.600Z,90.30
2022-09-04T04:54:24.560Z,90.30
2022-09-04T04:55:24.551Z,90.30
2022-09-04T04:56:24.541Z,90.30
2022-09-04T04:57:24.536Z,90.41
2022-09-04T04:58:24.596Z,90.41
2022-09-04T04:59:24.524Z,90.41
2022-09-04T05:00:27.691Z,90.45
2022-09-04T05:01:24.523Z,90.45
2022-09-04T05:02:24.572Z,90.55
2022-09-04T05:03:24.459Z,90.55
2022-09-04T05:04:24.452Z,90.65
2022-09-04T05:05:24.435Z,90.65
2022-09-04T05:06:24.419Z,90.65
2022-09-04T05:07:24.398Z,90.55
2022-09-04T05:08:24.431Z,90.55
2022-09-04T05:09:24.390Z,90.55
2022-09-04T05:10:24.386Z,90.55
2022-09-04T05:11:24.390Z,90.50
2022-09-04T05:12:24.329Z,90.50
2022-09-04T05:13:24.363Z,90.41
2022-09-04T05:14:24.319Z,90.41
2022-09-04T05:15:24.302Z,90.30
2022-09-04T05:16:24.317Z,90.30
2022-09-04T05:17:24.281Z,90.10
2022-09-04T05:18:24.353Z,90.10
2022-09-04T05:19:24.239Z,90.20
2022-09-04T05:20:24.238Z,90.10
2022-09-04T05:21:24.236Z,90.20
2022-09-04T05:22:24.211Z,90.20
2022-09-04T05:23:24.967Z,90.10
2022-09-04T05:24:24.235Z,90.20
2022-09-04T05:25:24.156Z,90.20
2022-09-04T05:26:24.152Z,90.10
2022-09-04T05:27:24.141Z,90.00
2022-09-04T05:28:24.400Z,90.10
2022-09-04T05:29:24.120Z,90.00
2022-09-04T05:30:24.098Z,89.90
2022-09-04T05:31:24.172Z,89.90
2022-09-04T05:32:24.088Z,89.90
2022-09-04T05:33:24.089Z,90.00
2022-09-04T05:34:24.052Z,90.00
2022-09-04T05:35:24.039Z,90.10
2022-09-04T05:36:24.040Z,90.10
2022-09-04T05:37:24.018Z,90.10
2022-09-04T05:38:24.161Z,90.20
2022-09-04T05:39:24.033Z,90.20
2022-09-04T05:40:23.981Z,90.30
2022-09-04T05:41:23.983Z,90.30
2022-09-04T05:42:23.968Z,90.20
2022-09-04T05:43:23.963Z,90.20
2022-09-04T05:44:23.930Z,90.20
2022-09-04T05:45:23.921Z,90.10
2022-09-04T05:46:23.969Z,90.10
2022-09-04T05:47:27.437Z,90.00
2022-09-04T05:48:25.022Z,89.90
2022-09-04T05:49:23.848Z,89.79
2022-09-04T05:50:23.858Z,89.79
2022-09-04T05:51:31.405Z,89.90
2022-09-04T05:52:23.812Z,89.90
2022-09-04T05:53:23.835Z,89.90
2022-09-04T05:54:26.462Z,89.79
2022-09-04T05:55:23.795Z,89.70
2022-09-04T05:56:23.782Z,89.70
2022-09-04T05:57:23.741Z,89.55
2022-09-04T05:58:23.762Z,89.59
2022-09-04T05:59:23.743Z,89.59
2022-09-04T06:00:23.721Z,89.59
2022-09-04T06:01:23.786Z,89.70
2022-09-04T06:02:23.810Z,89.70
2022-09-04T06:03:23.690Z,89.65
2022-09-04T06:04:23.675Z,89.55
2022-09-04T06:05:23.675Z,89.55
2022-09-04T06:06:23.641Z,89.55
2022-09-04T06:07:23.620Z,89.35
2022-09-04T06:08:28.348Z,89.35
2022-09-04T06:09:24.589Z,89.35
2022-09-04T06:10:23.578Z,89.45
2022-09-04T06:11:23.595Z,89.55
2022-09-04T06:12:23.562Z,89.35
2022-09-04T06:13:23.594Z,89.35
2022-09-04T06:14:23.541Z,89.35
2022-09-04T06:15:23.523Z,89.35
2022-09-04T06:16:23.562Z,89.35
2022-09-04T06:17:23.506Z,89.35
2022-09-04T06:18:23.504Z,89.35
2022-09-04T06:19:23.458Z,89.35
2022-09-04T06:20:23.450Z,89.35
2022-09-04T06:21:23.447Z,89.35
2022-09-04T06:22:23.432Z,89.25
2022-09-04T06:23:23.420Z,89.15
2022-09-04T06:24:23.415Z,89.11
2022-09-04T06:25:23.573Z,89.01
2022-09-04T06:26:23.391Z,88.90
2022-09-04T06:27:23.383Z,88.70
2022-09-04T06:28:23.431Z,88.70
2022-09-04T06:29:23.341Z,88.60
2022-09-04T06:30:23.333Z,88.60
2022-09-04T06:31:23.362Z,88.70
2022-09-04T06:32:23.300Z,88.60
2022-09-04T06:33:23.331Z,88.50
2022-09-04T06:34:23.280Z,88.50
2022-09-04T06:35:23.258Z,88.40
2022-09-04T06:36:23.258Z,88.16
2022-09-04T06:37:23.232Z,87.96
2022-09-04T06:38:23.283Z,87.85
2022-09-04T06:39:23.260Z,87.85
2022-09-04T06:40:23.202Z,87.85
2022-09-04T06:41:23.179Z,87.85
2022-09-04T06:42:23.159Z,87.85
2022-09-04T06:43:23.159Z,87.41
2022-09-04T06:44:24.148Z,87.31
2022-09-04T06:45:23.118Z,87.21
2022-09-04T06:46:23.163Z,87.01
2022-09-04T06:47:23.106Z,86.81
2022-09-04T06:48:23.109Z,86.81
2022-09-04T06:49:23.068Z,86.91
2022-09-04T06:50:23.083Z,86.91
2022-09-04T06:51:23.073Z,86.91
2022-09-04T06:52:23.038Z,86.97
2022-09-04T06:53:23.033Z,86.87
2022-09-04T06:54:23.009Z,86.87
2022-09-04T06:55:22.988Z,86.87
2022-09-04T06:56:23.002Z,86.87
2022-09-04T06:57:22.983Z,86.77
2022-09-04T06:58:22.979Z,86.66
2022-09-04T06:59:22.979Z,86.66
2022-09-04T07:00:23.659Z,86.66
2022-09-04T07:01:22.985Z,86.52
2022-09-04T07:02:23.055Z,86.32
2022-09-04T07:03:22.898Z,86.22
2022-09-04T07:04:22.900Z,86.12
2022-09-04T07:05:22.890Z,85.92
2022-09-04T07:06:22.860Z,85.82
2022-09-04T07:07:22.866Z,85.82
2022-09-04T07:08:22.951Z,85.82
2022-09-04T07:09:22.820Z,85.82
2022-09-04T07:10:22.855Z,85.78
2022-09-04T07:11:22.812Z,85.68
2022-09-04T07:12:22.778Z,85.48
2022-09-04T07:13:22.781Z,85.17
2022-09-04T07:14:22.773Z,84.97
2022-09-04T07:15:22.742Z,84.77
2022-09-04T07:16:22.784Z,84.63
2022-09-04T07:17:22.729Z,84.63
2022-09-04T07:18:22.758Z,84.33
2022-09-04T07:19:22.686Z,83.93
2022-09-04T07:20:22.796Z,83.73
2022-09-04T07:21:22.648Z,83.43
2022-09-04T07:22:23.671Z,83.59
2022-09-04T07:23:22.679Z,83.69
2022-09-04T07:24:22.618Z,83.49
2022-09-04T07:25:22.628Z,83.29
2022-09-04T07:26:22.587Z,83.18
2022-09-04T07:27:22.597Z,83.09
2022-09-04T07:28:22.601Z,82.78
2022-09-04T07:29:25.744Z,82.75
2022-09-04T07:30:22.548Z,82.64
2022-09-04T07:31:22.578Z,82.45
2022-09-04T07:32:22.528Z,82.45
2022-09-04T07:33:22.506Z,82.45
2022-09-04T07:34:22.531Z,82.54
2022-09-04T07:35:22.478Z,82.54
2022-09-04T07:36:26.379Z,82.04
2022-09-04T07:37:23.480Z,81.84
2022-09-04T07:38:22.471Z,82.00
2022-09-04T07:39:22.505Z,82.00
2022-09-04T07:40:22.425Z,81.80
2022-09-04T07:41:22.409Z,81.70
2022-09-04T07:42:22.399Z,81.30
2022-09-04T07:43:22.403Z,81.10
2022-09-04T07:44:22.352Z,81.00
2022-09-04T07:45:22.340Z,81.36
2022-09-04T07:46:22.461Z,81.26
2022-09-04T07:47:22.305Z,81.16
2022-09-04T07:48:22.380Z,80.86
2022-09-04T07:49:22.298Z,80.56
2022-09-04T07:50:22.285Z,80.36
2022-09-04T07:51:22.270Z,80.42
2022-09-04T07:52:22.261Z,80.22
2022-09-04T07:53:22.266Z,80.12
2022-09-04T07:54:22.336Z,80.12
2022-09-04T07:55:22.224Z,79.82
2022-09-04T07:56:22.218Z,79.82
2022-09-04T07:57:22.185Z,79.82
2022-09-04T07:58:22.178Z,79.32
2022-09-04T07:59:22.178Z,79.18
2022-09-04T08:00:22.142Z,79.08
2022-09-04T08:01:22.140Z,79.18
2022-09-04T08:02:22.146Z,79.08
2022-09-04T08:03:22.121Z,79.08
2022-09-04T08:04:22.114Z,79.18
2022-09-04T08:05:22.086Z,79.28
2022-09-04T08:06:22.074Z,79.48
2022-09-04T08:07:24.627Z,79.58
2022-09-04T08:08:22.049Z,79.18
2022-09-04T08:09:22.058Z,78.24
2022-09-04T08:10:22.013Z,78.54
2022-09-04T08:11:22.008Z,78.84
2022-09-04T08:12:21.994Z,78.24
2022-09-04T08:13:21.978Z,78.54
2022-09-04T08:14:21.998Z,78.24
2022-09-04T08:15:22.141Z,77.80
2022-09-04T08:16:21.953Z,77.20
2022-09-04T08:17:21.923Z,77.30
2022-09-04T08:18:21.933Z,77.50
2022-09-04T08:19:21.922Z,77.30
2022-09-04T08:20:21.897Z,77.70
2022-09-04T08:21:21.877Z,77.70
2022-09-04T08:22:25.043Z,77.76
2022-09-04T08:23:22.847Z,77.56
2022-09-04T08:24:21.853Z,77.26
2022-09-04T08:25:21.835Z,76.76
2022-09-04T08:26:21.815Z,76.37
2022-09-04T08:27:21.809Z,77.06
2022-09-04T08:28:21.795Z,76.97
2022-09-04T08:29:21.764Z,76.87
2022-09-04T08:30:21.753Z,77.06
2022-09-04T08:31:21.775Z,76.87
2022-09-04T08:32:21.726Z,76.76
2022-09-04T08:33:21.700Z,76.46
2022-09-04T08:34:21.713Z,76.43
2022-09-04T08:35:21.686Z,76.73
2022-09-04T08:36:21.663Z,76.63
2022-09-04T08:37:21.691Z,76.03
2022-09-04T08:38:21.665Z,76.23
2022-09-04T08:39:21.718Z,75.73
2022-09-04T08:40:21.672Z,75.69
2022-09-04T08:41:21.615Z,75.59
2022-09-04T08:42:21.582Z,75.69
2022-09-04T08:43:21.570Z,74.99
2022-09-04T08:44:21.613Z,75.19
2022-09-04T08:45:21.555Z,75.09
2022-09-04T08:46:23.940Z,75.69
2022-09-04T08:47:21.534Z,75.29
2022-09-04T08:48:21.501Z,74.99
2022-09-04T08:49:21.516Z,75.39
2022-09-04T08:50:21.494Z,74.89
2022-09-04T08:51:21.473Z,75.09
2022-09-04T08:52:21.467Z,75.16
2022-09-04T08:53:21.463Z,74.36
2022-09-04T08:54:21.452Z,74.55
2022-09-04T08:55:21.437Z,74.26
2022-09-04T08:56:21.416Z,74.16
2022-09-04T08:57:21.412Z,74.16
2022-09-04T08:58:21.390Z,74.05
2022-09-04T08:59:21.388Z,74.32
2022-09-04T09:00:21.368Z,74.42
2022-09-04T09:01:21.477Z,74.52
2022-09-04T09:02:21.395Z,73.72
2022-09-04T09:03:21.324Z,73.82
2022-09-04T09:04:21.333Z,73.62
2022-09-04T09:05:21.291Z,73.92
2022-09-04T09:06:21.284Z,74.19
2022-09-04T09:07:21.264Z,74.19
2022-09-04T09:08:21.274Z,74.08
2022-09-04T09:09:21.261Z,74.29
2022-09-04T09:10:21.234Z,73.58
2022-09-04T09:11:21.224Z,73.88
2022-09-04T09:12:21.203Z,73.28
2022-09-04T09:13:21.180Z,72.78
2022-09-04T09:14:21.202Z,73.19
2022-09-04T09:15:21.191Z,73.28
2022-09-04T09:16:21.205Z,73.19
2022-09-04T09:17:21.508Z,72.99
2022-09-04T09:18:22.195Z,73.49
2022-09-04T09:19:21.112Z,72.49
2022-09-04T09:20:21.169Z,72.59
2022-09-04T09:21:21.094Z,72.78
2022-09-04T09:22:21.070Z,72.49
2022-09-04T09:23:21.114Z,72.19
2022-09-04T09:24:21.067Z,72.69
2022-09-04T09:25:21.247Z,72.55
2022-09-04T09:26:21.039Z,72.55
2022-09-04T09:27:21.022Z,72.75
2022-09-04T09:28:21.030Z,73.15
2022-09-04T09:29:20.980Z,72.45
2022-09-04T09:30:21.002Z,72.65
2022-09-04T09:31:21.102Z,72.35
2022-09-04T09:32:20.937Z,71.86
2022-09-04T09:33:21.001Z,72.12
2022-09-04T09:34:20.918Z,71.82
2022-09-04T09:35:20.909Z,72.42
2022-09-04T09:36:20.905Z,71.92
2022-09-04T09:37:20.892Z,71.69
2022-09-04T09:38:20.873Z,71.39
2022-09-04T09:39:20.883Z,71.29
2022-09-04T09:40:20.862Z,71.09
2022-09-04T09:41:20.819Z,70.39
2022-09-04T09:42:20.823Z,70.79
2022-09-04T09:43:20.908Z,70.49
2022-09-04T09:44:20.944Z,70.49
2022-09-04T09:45:20.787Z,70.49
2022-09-04T09:46:20.832Z,70.29
2022-09-04T09:47:20.760Z,69.69
2022-09-04T09:48:20.753Z,70.29
2022-09-04T09:49:20.742Z,70.69
2022-09-04T09:50:20.727Z,70.29
2022-09-04T09:51:20.688Z,70.59
2022-09-04T09:52:20.688Z,70.59
2022-09-04T09:53:20.725Z,71.09
2022-09-04T09:54:20.663Z,71.05
2022-09-04T09:55:20.671Z,70.56
2022-09-04T09:56:20.641Z,70.45
2022-09-04T09:57:20.642Z,70.45
2022-09-04T09:58:21.622Z,70.16
2022-09-04T09:59:20.593Z,69.66
2022-09-04T10:00:20.609Z,70.06
2022-09-04T10:01:20.585Z,69.96
2022-09-04T10:02:20.599Z,70.26
2022-09-04T10:03:20.554Z,70.52
2022-09-04T10:04:20.552Z,70.72
2022-09-04T10:05:20.528Z,70.03
2022-09-04T10:06:20.511Z,69.62
2022-09-04T10:07:20.500Z,69.53
2022-09-04T10:08:31.774Z,68.83
2022-09-04T10:09:21.462Z,68.13
2022-09-04T10:10:20.472Z,68.53
2022-09-04T10:11:20.464Z,68.93
2022-09-04T10:12:20.418Z,69.43
2022-09-04T10:13:20.459Z,68.70
2022-09-04T10:14:24.908Z,68.20
2022-09-04T10:15:20.411Z,68.30
2022-09-04T10:16:20.426Z,68.50
2022-09-04T10:17:20.362Z,68.50
2022-09-04T10:18:20.362Z,68.40
2022-09-04T10:19:20.339Z,68.30
2022-09-04T10:20:20.343Z,68.10
2022-09-04T10:21:20.297Z,68.10
2022-09-04T10:22:20.295Z,67.80
2022-09-04T10:23:20.351Z,67.80
2022-09-04T10:24:20.258Z,68.00
2022-09-04T10:25:20.277Z,68.30
2022-09-04T10:26:20.233Z,68.60
2022-09-04T10:27:20.429Z,68.90
2022-09-04T10:28:20.207Z,67.60
2022-09-04T10:29:20.197Z,67.17
2022-09-04T10:30:20.263Z,67.27
2022-09-04T10:31:20.181Z,68.16
2022-09-04T10:32:20.180Z,67.67
2022-09-04T10:33:20.152Z,67.67
2022-09-04T10:34:20.140Z,67.37
2022-09-04T10:35:20.141Z,67.37
2022-09-04T10:36:20.110Z,67.14
2022-09-04T10:37:20.110Z,67.83
2022-09-04T10:38:20.090Z,66.74
2022-09-04T10:39:20.122Z,67.04
2022-09-04T10:40:20.084Z,66.74
2022-09-04T10:41:20.039Z,66.44
2022-09-04T10:42:20.043Z,66.54
2022-09-04T10:43:20.099Z,66.64
2022-09-04T10:44:20.022Z,66.54
2022-09-04T10:45:20.021Z,66.84
2022-09-04T10:46:22.918Z,67.04
2022-09-04T10:47:19.965Z,67.44
2022-09-04T10:48:19.937Z,66.74
2022-09-04T10:49:19.940Z,67.44
2022-09-04T10:50:19.927Z,66.91
2022-09-04T10:51:19.906Z,66.81
2022-09-04T10:52:19.886Z,66.71
2022-09-04T10:53:19.984Z,66.01
2022-09-04T10:54:19.865Z,66.21
2022-09-04T10:55:19.880Z,66.11
2022-09-04T10:56:19.835Z,65.42
2022-09-04T10:57:19.849Z,65.61
2022-09-04T10:58:19.823Z,65.61
2022-09-04T10:59:19.808Z,65.61
2022-09-04T11:00:19.789Z,65.61
2022-09-04T11:01:19.819Z,65.61
2022-09-04T11:02:19.810Z,65.91
2022-09-04T11:03:19.781Z,66.18
2022-09-04T11:04:19.727Z,65.19
2022-09-04T11:05:19.746Z,65.39
2022-09-04T11:06:19.710Z,65.19
2022-09-04T11:07:19.687Z,64.00
2022-09-04T11:08:19.692Z,64.00
2022-09-04T11:09:19.678Z,64.19
2022-09-04T11:10:19.658Z,63.79
2022-09-04T11:11:19.636Z,64.09
2022-09-04T11:12:19.623Z,63.70
2022-09-04T11:13:19.699Z,64.52
2022-09-04T11:14:19.597Z,64.42
2022-09-04T11:15:19.631Z,64.82
2022-09-04T11:16:19.611Z,65.22
2022-09-04T11:17:19.758Z,63.92
2022-09-04T11:18:19.569Z,64.72
2022-09-04T11:19:19.565Z,65.31
2022-09-04T11:20:19.604Z,64.52
2022-09-04T11:21:19.519Z,64.03
2022-09-04T11:22:19.511Z,63.79
2022-09-04T11:23:19.485Z,63.79
2022-09-04T11:24:19.489Z,64.89
2022-09-04T11:25:19.487Z,64.09
2022-09-04T11:26:19.454Z,64.56
2022-09-04T11:27:19.427Z,64.26
2022-09-04T11:28:19.415Z,63.73
2022-09-04T11:29:19.409Z,63.13
2022-09-04T11:30:19.397Z,63.13
2022-09-04T11:31:19.430Z,62.74
2022-09-04T11:32:19.366Z,62.54
2022-09-04T11:33:19.366Z,62.15
2022-09-04T11:34:19.367Z,62.24
2022-09-04T11:35:19.381Z,62.15
2022-09-04T11:36:19.325Z,62.05
2022-09-04T11:37:19.312Z,62.74
2022-09-04T11:38:19.301Z,62.24
2022-09-04T11:39:19.318Z,62.15
2022-09-04T11:40:19.300Z,61.94
2022-09-04T11:41:19.269Z,61.55
2022-09-04T11:42:19.225Z,62.15
2022-09-04T11:43:19.239Z,62.57
2022-09-04T11:44:19.219Z,62.18
2022-09-04T11:45:19.204Z,61.78
2022-09-04T11:46:19.196Z,62.18
2022-09-04T11:47:19.188Z,62.07
2022-09-04T11:48:19.156Z,62.37
2022-09-04T11:49:19.189Z,62.40
2022-09-04T11:50:19.158Z,62.60
2022-09-04T11:51:19.134Z,62.70
2022-09-04T11:52:26.308Z,63.10
2022-09-04T11:53:19.176Z,64.00
2022-09-04T11:54:20.865Z,64.00
2022-09-04T11:55:19.080Z,63.89
2022-09-04T11:56:19.054Z,64.19
2022-09-04T11:57:19.078Z,64.00
2022-09-04T11:58:19.025Z,64.00
2022-09-04T11:59:19.022Z,63.70
2022-09-04T12:00:19.037Z,63.49
2022-09-04T12:01:19.021Z,63.49
2022-09-04T12:02:19.063Z,63.60
2022-09-04T12:03:19.054Z,63.10
2022-09-04T12:04:18.981Z,63.70
2022-09-04T12:05:18.971Z,62.70
2022-09-04T12:06:18.924Z,62.60
2022-09-04T12:07:18.926Z,62.70
2022-09-04T12:08:18.916Z,63.10
2022-09-04T12:09:18.907Z,63.40
2022-09-04T12:10:18.915Z,64.09
2022-09-04T12:11:18.868Z,63.49
2022-09-04T12:12:18.843Z,63.10
2022-09-04T12:13:18.885Z,63.30
2022-09-04T12:14:18.815Z,63.10
2022-09-04T12:15:18.845Z,62.90
2022-09-04T12:16:18.832Z,62.90
2022-09-04T12:17:18.804Z,62.80
2022-09-04T12:18:18.834Z,63.10
2022-09-04T12:19:18.755Z,62.80
2022-09-04T12:20:18.794Z,62.70
2022-09-04T12:21:18.753Z,62.80
2022-09-04T12:22:18.736Z,62.30
2022-09-04T12:23:18.758Z,61.80
2022-09-04T12:24:18.684Z,61.91
2022-09-04T12:25:18.706Z,62.21
2022-09-04T12:26:18.685Z,62.60
2022-09-04T12:27:18.685Z,62.80
2022-09-04T12:28:18.676Z,62.90
2022-09-04T12:29:18.638Z,62.30
2022-09-04T12:30:18.637Z,61.51
2022-09-04T12:31:18.674Z,62.21
2022-09-04T12:32:18.604Z,60.91
2022-09-04T12:33:18.711Z,61.71
2022-09-04T12:34:18.588Z,61.31
2022-09-04T12:35:18.583Z,61.80
2022-09-04T12:36:18.552Z,62.21
2022-09-04T12:37:18.556Z,61.80
2022-09-04T12:38:18.521Z,61.41
2022-09-04T12:39:18.510Z,61.18
2022-09-04T12:40:18.507Z,61.18
2022-09-04T12:41:18.473Z,60.98
2022-09-04T12:42:18.483Z,61.38
2022-09-04T12:43:18.542Z,61.48
2022-09-04T12:44:18.473Z,60.69
2022-09-04T12:45:18.517Z,60.78
2022-09-04T12:46:18.467Z,60.66
2022-09-04T12:47:18.394Z,60.56
2022-09-04T12:48:18.407Z,59.36
2022-09-04T12:49:18.406Z,58.57
2022-09-04T12:50:18.363Z,58.87
2022-09-04T12:51:18.353Z,59.86
2022-09-04T12:52:18.346Z,57.78